Time;durP1;ratioP1;P1;durP2;ratioP2;P2;SDS_P1;SDS_P2;PMS_P1;PMS_P2;Temp;Humidity;BMP_temperature;BMP_pressure;BME280_temperature;BME280_humidity;BME280_pressure;Samples;Min_cycle;Max_cycle;Signal;HPM_P1;HPM_P2
2022/11/26 00:02:23;;;;;;;32.75;11.80;;;;;;;5.42;100.00;102432.22;5037967;28;20094;-83
2022/11/26 00:04:50;;;;;;;23.13;10.90;;;;;;;5.40;100.00;102432.25;5038009;28;20033;-83
2022/11/26 00:07:20;;;;;;;26.05;10.98;;;;;;;5.41;100.00;102435.78;5047505;28;20041;-83
2022/11/26 00:09:46;;;;;;;33.70;11.60;;;;;;;5.39;100.00;102427.81;5049824;28;20078;-83
2022/11/26 00:12:23;;;;;;;26.77;11.77;;;;;;;5.41;100.00;102431.31;5039769;28;20053;-83
2022/11/26 00:14:49;;;;;;;28.10;12.02;;;;;;;5.43;100.00;102433.94;5027732;28;20447;-83
2022/11/26 00:17:15;;;;;;;26.85;11.48;;;;;;;5.41;100.00;102436.66;5029322;28;20039;-83
2022/11/26 00:19:43;;;;;;;28.00;12.45;;;;;;;5.40;100.00;102437.59;5043333;28;20059;-83
2022/11/26 00:22:22;;;;;;;29.48;11.70;;;;;;;5.40;100.00;102444.69;5032472;28;20028;-83
2022/11/26 00:24:48;;;;;;;25.83;11.13;;;;;;;5.37;100.00;102442.09;5026026;28;20040;-83
2022/11/26 00:27:13;;;;;;;25.83;11.77;;;;;;;5.35;100.00;102449.28;5048292;28;20033;-83
2022/11/26 00:29:38;;;;;;;29.63;12.32;;;;;;;5.33;100.00;102444.00;5032158;28;20037;-83
2022/11/26 00:32:13;;;;;;;33.65;11.13;;;;;;;5.33;100.00;102440.44;5025352;28;20119;-83
2022/11/26 00:34:42;;;;;;;36.35;11.50;;;;;;;5.32;100.00;102446.69;5024312;28;20048;-83
2022/11/26 00:37:19;;;;;;;31.75;12.05;;;;;;;5.33;100.00;102443.09;5031206;28;20025;-82
2022/11/26 00:39:45;;;;;;;25.38;10.68;;;;;;;5.30;100.00;102437.84;5037022;28;20309;-82
2022/11/26 00:42:11;;;;;;;25.17;10.85;;;;;;;5.25;100.00;102456.63;5043836;28;20069;-82
2022/11/26 00:44:36;;;;;;;25.98;11.40;;;;;;;5.25;100.00;102452.16;5029702;28;20052;-83
2022/11/26 00:47:01;;;;;;;30.40;11.77;;;;;;;5.25;100.00;102453.97;5046874;28;20495;-83
2022/11/26 00:49:27;;;;;;;30.23;12.02;;;;;;;5.27;100.00;102460.16;5030555;28;20132;-83
2022/11/26 00:51:53;;;;;;;27.80;10.90;;;;;;;5.24;100.00;102449.53;5028488;28;20111;-83
2022/11/26 00:54:20;;;;;;;32.53;12.20;;;;;;;5.24;100.00;102454.84;5028342;28;20048;-83
2022/11/26 00:56:47;;;;;;;25.83;11.32;;;;;;;5.19;100.00;102457.66;5044670;28;20044;-83
2022/11/26 00:59:16;;;;;;;28.70;10.77;;;;;;;5.13;100.00;102457.81;5040426;28;20037;-83
2022/11/26 01:01:41;;;;;;;29.35;11.35;;;;;;;5.12;100.00;102458.72;5043001;28;20044;-83
2022/11/26 01:04:07;;;;;;;27.80;11.38;;;;;;;5.12;100.00;102458.72;5030610;28;20037;-83
2022/11/26 01:06:35;;;;;;;24.45;10.85;;;;;;;5.10;100.00;102457.88;5048351;28;20116;-83
2022/11/26 01:09:03;;;;;;;28.50;10.77;;;;;;;5.06;100.00;102466.88;5034033;28;20119;-83
2022/11/26 01:11:28;;;;;;;24.25;9.90;;;;;;;5.03;100.00;102456.28;5051837;28;20124;-82
2022/11/26 01:13:54;;;;;;;25.63;11.00;;;;;;;4.99;100.00;102462.59;5028136;28;20113;-82
2022/11/26 01:16:28;;;;;;;26.90;11.32;;;;;;;4.96;100.00;102462.66;5030449;28;20029;-82
2022/11/26 01:18:56;;;;;;;25.77;10.65;;;;;;;4.85;100.00;102458.47;5049315;28;20128;-82
2022/11/26 01:21:23;;;;;;;27.67;10.90;;;;;;;4.80;100.00;102457.72;5013826;28;20033;-82
2022/11/26 01:23:48;;;;;;;27.77;11.50;;;;;;;4.77;100.00;102460.41;5048424;28;20110;-82
2022/11/26 01:26:20;;;;;;;24.77;10.30;;;;;;;4.77;100.00;102459.56;5051814;28;20056;-82
2022/11/26 01:28:45;;;;;;;27.52;10.95;;;;;;;4.76;100.00;102453.38;5033797;28;20032;-82
2022/11/26 01:31:16;;;;;;;25.42;10.40;;;;;;;4.77;100.00;102447.09;5048345;28;20037;-82
2022/11/26 01:33:42;;;;;;;28.45;11.95;;;;;;;4.79;100.00;102447.97;5046579;28;20037;-82
2022/11/26 01:36:29;;;;;;;28.40;10.38;;;;;;;4.82;100.00;102453.22;5024349;28;20544;-82
2022/11/26 01:39:01;;;;;;;26.52;11.18;;;;;;;4.78;100.00;102454.19;5034756;28;20033;-82
2022/11/26 01:41:43;;;;;;;31.17;12.90;;;;;;;4.79;100.00;102461.28;5044250;28;20403;-82
2022/11/26 01:44:16;;;;;;;30.70;11.00;;;;;;;4.77;100.00;102457.75;5025464;28;20090;-82
2022/11/26 01:46:41;;;;;;;27.92;10.77;;;;;;;4.77;100.00;102460.41;5044872;28;20059;-82
2022/11/26 01:49:16;;;;;;;29.02;12.00;;;;;;;4.78;100.00;102463.97;5047169;28;20088;-82
2022/11/26 01:51:42;;;;;;;27.88;11.52;;;;;;;4.75;100.00;102478.25;5040333;28;20114;-82
2022/11/26 01:54:09;;;;;;;29.20;11.38;;;;;;;4.77;100.00;102475.53;5041527;28;20119;-82
2022/11/26 01:56:37;;;;;;;27.13;10.70;;;;;;;4.78;100.00;102478.16;5024185;28;20025;-82
2022/11/26 01:59:11;;;;;;;28.58;11.82;;;;;;;4.77;100.00;102476.41;5021709;28;20045;-82
2022/11/26 02:01:37;;;;;;;26.73;11.73;;;;;;;4.78;100.00;102477.31;5044917;28;20094;-81
2022/11/26 02:04:22;;;;;;;28.30;10.85;;;;;;;4.81;100.00;102485.22;5029307;28;20124;-81
2022/11/26 02:06:49;;;;;;;29.45;11.75;;;;;;;4.76;100.00;102488.00;5039080;28;20045;-81
2022/11/26 02:09:15;;;;;;;24.15;11.25;;;;;;;4.78;100.00;102485.28;5047417;28;20025;-81
2022/11/26 02:11:41;;;;;;;24.85;11.23;;;;;;;4.79;100.00;102490.59;5046787;28;20136;-81
2022/11/26 02:14:25;;;;;;;27.45;11.02;;;;;;;4.82;100.00;102490.50;5040836;28;20112;-81
2022/11/26 02:17:03;;;;;;;25.05;10.57;;;;;;;4.83;100.00;102492.28;5024610;28;20017;-82
2022/11/26 02:19:40;;;;;;;28.27;11.50;;;;;;;4.82;100.00;102489.66;5048906;28;20029;-82
2022/11/26 02:22:24;;;;;;;29.42;11.13;;;;;;;4.81;100.00;102499.41;5044632;28;20113;-82
2022/11/26 02:25:15;;;;;;;29.77;12.63;;;;;;;4.82;100.00;102498.50;5042571;28;20029;-81
2022/11/26 02:28:18;;;;;;;30.70;12.27;;;;;;;4.83;100.00;102494.94;5047292;28;20103;-81
2022/11/26 02:30:57;;;;;;;30.35;11.45;;;;;;;4.79;100.00;102500.34;5043098;28;20037;-81
2022/11/26 02:33:33;;;;;;;25.63;10.50;;;;;;;4.77;100.00;102500.38;5036580;28;20455;-81
2022/11/26 02:36:08;;;;;;;28.30;11.90;;;;;;;4.75;100.00;102502.22;5047047;28;20083;-81
2022/11/26 02:38:35;;;;;;;28.42;12.20;;;;;;;4.76;100.00;102495.97;5015697;28;20037;-81
2022/11/26 02:41:01;;;;;;;26.08;11.70;;;;;;;4.76;100.00;102495.97;5047006;28;20133;-81
2022/11/26 02:43:27;;;;;;;27.27;11.25;;;;;;;4.77;100.00;102496.84;5046779;28;20052;-81
2022/11/26 02:45:57;;;;;;;26.13;11.98;;;;;;;4.77;100.00;102497.72;5039177;28;20029;-81
2022/11/26 02:48:29;;;;;;;26.70;11.23;;;;;;;4.77;100.00;102499.50;5025521;28;20510;-81
2022/11/26 02:50:59;;;;;;;23.92;11.93;;;;;;;4.77;100.00;102502.19;5022720;28;20087;-81
2022/11/26 02:53:28;;;;;;;27.45;10.73;;;;;;;4.76;100.00;102509.31;5043942;28;20032;-81
2022/11/26 02:56:02;;;;;;;30.77;12.95;;;;;;;4.78;100.00;102511.94;5039798;28;20060;-81
2022/11/26 02:58:28;;;;;;;30.27;12.18;;;;;;;4.79;100.00;102509.22;5044409;28;20028;-81
2022/11/26 03:00:57;;;;;;;24.77;11.00;;;;;;;4.79;100.00;102511.00;5029108;28;20036;-81
2022/11/26 03:03:32;;;;;;;23.38;10.38;;;;;;;4.79;100.00;102501.25;5045161;28;20586;-81
2022/11/26 03:06:03;;;;;;;34.10;10.70;;;;;;;4.80;100.00;102512.75;5043015;28;20388;-81
2022/11/26 03:08:30;;;;;;;24.55;11.15;;;;;;;4.81;100.00;102517.19;5043175;28;20033;-81
2022/11/26 03:10:56;;;;;;;29.30;11.40;;;;;;;4.81;100.00;102517.19;5047238;28;20051;-81
2022/11/26 03:13:21;;;;;;;27.33;10.90;;;;;;;4.83;100.00;102524.25;5039198;28;20029;-81
2022/11/26 03:15:46;;;;;;;29.15;11.75;;;;;;;4.82;100.00;102527.81;5024421;28;20424;-81
2022/11/26 03:18:12;;;;;;;24.35;10.38;;;;;;;4.80;100.00;102534.97;5021394;28;20037;-81
2022/11/26 03:20:37;;;;;;;28.30;10.77;;;;;;;4.82;100.00;102530.47;5049354;28;20033;-81
2022/11/26 03:23:02;;;;;;;24.65;10.30;;;;;;;4.81;100.00;102530.50;5044059;28;20040;-81
2022/11/26 03:25:28;;;;;;;27.42;10.95;;;;;;;4.80;100.00;102532.31;5044481;28;20080;-81
2022/11/26 03:27:53;;;;;;;27.00;11.48;;;;;;;4.79;100.00;102532.31;5042214;28;20337;-81
2022/11/26 03:30:19;;;;;;;29.42;10.82;;;;;;;4.78;100.00;102541.22;5026120;28;20124;-81
2022/11/26 03:32:44;;;;;;;29.23;10.07;;;;;;;4.78;100.00;102538.56;5050407;28;20029;-81
2022/11/26 03:35:09;;;;;;;26.23;11.55;;;;;;;4.77;100.00;102543.00;5046737;28;20064;-81
2022/11/26 03:37:35;;;;;;;28.77;10.95;;;;;;;4.76;100.00;102543.94;5045745;28;20042;-81
2022/11/26 03:40:00;;;;;;;28.25;9.88;;;;;;;4.80;100.00;102537.63;5022029;28;20115;-81
2022/11/26 03:42:26;;;;;;;25.88;10.77;;;;;;;4.78;100.00;102542.09;5049603;28;20040;-81
2022/11/26 03:44:51;;;;;;;25.17;9.98;;;;;;;4.77;100.00;102542.13;5025018;28;20083;-81
2022/11/26 03:47:16;;;;;;;25.63;9.88;;;;;;;4.76;100.00;102538.59;5031174;28;20469;-81
2022/11/26 03:49:41;;;;;;;26.95;10.70;;;;;;;4.75;100.00;102536.84;5031162;28;20037;-81
2022/11/26 03:52:07;;;;;;;27.17;9.93;;;;;;;4.74;100.00;102543.06;5025581;28;20021;-81
2022/11/26 03:54:32;;;;;;;30.88;10.38;;;;;;;4.70;100.00;102550.25;5030284;28;20104;-81
2022/11/26 03:56:57;;;;;;;22.75;9.13;;;;;;;4.69;100.00;102544.97;5044829;28;20025;-81
2022/11/26 03:59:23;;;;;;;26.35;10.23;;;;;;;4.67;100.00;102547.66;5042225;28;20086;-81
2022/11/26 04:01:48;;;;;;;25.45;9.65;;;;;;;4.63;100.00;102553.97;5028754;28;20033;-81
2022/11/26 04:04:13;;;;;;;23.92;10.07;;;;;;;4.59;100.00;102556.72;5026664;28;20526;-81
2022/11/26 04:06:39;;;;;;;24.80;8.95;;;;;;;4.56;100.00;102549.66;5040701;28;20030;-81
2022/11/26 04:09:04;;;;;;;25.13;9.38;;;;;;;4.58;100.00;102557.63;5018629;28;20033;-81
2022/11/26 04:11:30;;;;;;;24.55;10.27;;;;;;;4.60;100.00;102564.69;5028977;28;20144;-81
2022/11/26 04:13:55;;;;;;;32.17;9.93;;;;;;;4.59;100.00;102556.72;5044069;28;20044;-81
2022/11/26 04:16:20;;;;;;;21.92;9.10;;;;;;;4.58;100.00;102566.47;5033194;28;20370;-81
2022/11/26 04:18:46;;;;;;;29.08;10.20;;;;;;;4.55;100.00;102571.88;5026956;28;20047;-81
2022/11/26 04:21:12;;;;;;;30.88;10.30;;;;;;;4.57;100.00;102574.50;5039269;28;20107;-81
2022/11/26 04:23:37;;;;;;;25.90;9.65;;;;;;;4.53;100.00;102574.56;5042158;28;20437;-81
2022/11/26 04:26:03;;;;;;;21.83;9.27;;;;;;;4.54;100.00;102571.00;5043096;28;20100;-81
2022/11/26 04:28:28;;;;;;;24.00;9.93;;;;;;;4.53;100.00;102569.25;5045980;28;20044;-81
2022/11/26 04:30:54;;;;;;;29.63;9.80;;;;;;;4.59;100.00;102567.38;5040022;28;20389;-81
2022/11/26 04:33:19;;;;;;;23.45;10.10;;;;;;;4.58;100.00;102560.28;5044583;28;20044;-81
2022/11/26 04:35:45;;;;;;;23.65;9.15;;;;;;;4.59;100.00;102559.38;5026965;28;20024;-81
2022/11/26 04:38:10;;;;;;;26.45;9.70;;;;;;;4.60;100.00;102564.69;5023600;28;20025;-81
2022/11/26 04:40:35;;;;;;;28.00;10.00;;;;;;;4.64;100.00;102571.69;5045854;28;20519;-81
2022/11/26 04:43:01;;;;;;;24.00;9.63;;;;;;;4.67;100.00;102570.75;5046087;28;20021;-81
2022/11/26 04:45:26;;;;;;;25.80;8.88;;;;;;;4.66;100.00;102574.34;5032233;28;20044;-81
2022/11/26 04:47:52;;;;;;;29.13;9.75;;;;;;;4.68;100.00;102577.81;5042220;28;20044;-81
2022/11/26 04:50:17;;;;;;;27.67;9.07;;;;;;;4.67;100.00;102576.97;5026913;28;20535;-81
2022/11/26 04:52:43;;;;;;;26.63;9.07;;;;;;;4.65;100.00;102578.75;5046939;28;20109;-81
2022/11/26 04:55:08;;;;;;;33.05;8.85;;;;;;;4.64;100.00;102589.44;5046675;28;20037;-81
2022/11/26 04:57:33;;;;;;;24.58;8.93;;;;;;;4.58;100.00;102577.13;5048669;28;20450;-81
2022/11/26 04:59:59;;;;;;;24.67;8.35;;;;;;;4.57;100.00;102574.50;5043907;28;20032;-81
2022/11/26 05:02:24;;;;;;;28.20;10.68;;;;;;;4.57;100.00;102574.50;5041452;28;20033;-81
2022/11/26 05:04:49;;;;;;;30.23;10.07;;;;;;;4.55;100.00;102578.09;5048953;28;20109;-81
2022/11/26 05:07:15;;;;;;;24.80;8.43;;;;;;;4.53;100.00;102579.03;5042363;28;20061;-81
2022/11/26 05:09:40;;;;;;;22.35;8.55;;;;;;;4.51;100.00;102581.72;5037746;28;20116;-81
2022/11/26 05:12:05;;;;;;;29.92;10.48;;;;;;;4.47;100.00;102588.00;5040129;28;20049;-81
2022/11/26 05:14:30;;;;;;;24.98;8.02;;;;;;;4.41;100.00;102588.13;5028630;28;20085;-81
2022/11/26 05:16:56;;;;;;;22.60;8.68;;;;;;;4.40;100.00;102593.50;5018203;28;20026;-81
2022/11/26 05:19:21;;;;;;;24.83;9.13;;;;;;;4.33;100.00;102598.03;5036518;28;20487;-81
2022/11/26 05:21:46;;;;;;;23.23;8.77;;;;;;;4.32;100.00;102589.19;5026366;28;20040;-81
2022/11/26 05:24:12;;;;;;;30.17;9.85;;;;;;;4.29;100.00;102588.34;5029445;28;20037;-81
2022/11/26 05:26:37;;;;;;;24.80;9.27;;;;;;;4.30;100.00;102587.44;5044735;28;20102;-81
2022/11/26 05:29:02;;;;;;;27.00;10.10;;;;;;;4.27;100.00;102595.50;5024260;28;20153;-81
2022/11/26 05:31:28;;;;;;;22.45;8.85;;;;;;;4.30;100.00;102592.78;5028103;28;20128;-81
2022/11/26 05:33:54;;;;;;;27.25;8.75;;;;;;;4.30;100.00;102606.09;5023240;28;20021;-81
2022/11/26 05:36:19;;;;;;;26.33;8.60;;;;;;;4.30;100.00;102601.63;5046433;28;20074;-81
2022/11/26 05:38:44;;;;;;;24.58;8.43;;;;;;;4.31;100.00;102599.88;5044527;28;20151;-81
2022/11/26 05:41:10;;;;;;;24.27;8.20;;;;;;;4.31;100.00;102603.38;5043255;28;20061;-81
2022/11/26 05:43:35;;;;;;;30.80;10.10;;;;;;;4.32;100.00;102609.59;5024220;28;20032;-81
2022/11/26 05:46:05;;;;;;;23.63;9.18;;;;;;;4.36;100.00;102611.28;5047388;28;20037;-81
2022/11/26 05:48:31;;;;;;;26.52;10.00;;;;;;;4.35;100.00;102606.88;5022723;28;20083;-80
2022/11/26 05:50:58;;;;;;;23.20;9.55;;;;;;;4.36;100.00;102608.63;5046410;28;20033;-81
2022/11/26 05:53:23;;;;;;;27.15;9.30;;;;;;;4.37;100.00;102610.38;5024869;28;20033;-81
2022/11/26 05:55:49;;;;;;;25.35;10.23;;;;;;;4.36;100.00;102616.63;5039685;28;20049;-81
2022/11/26 05:58:14;;;;;;;27.35;9.32;;;;;;;4.38;100.00;102622.81;5042077;28;20040;-81
2022/11/26 06:00:39;;;;;;;26.63;9.70;;;;;;;4.36;100.00;102629.91;5022287;28;20128;-81
2022/11/26 06:03:04;;;;;;;25.05;9.23;;;;;;;4.31;100.00;102629.16;5045102;28;20781;-81
2022/11/26 06:05:30;;;;;;;23.77;8.45;;;;;;;4.34;100.00;102637.06;5025203;28;20033;-81
2022/11/26 06:07:55;;;;;;;24.98;8.35;;;;;;;4.32;100.00;102626.44;5046197;28;20117;-81
2022/11/26 06:10:20;;;;;;;25.48;8.98;;;;;;;4.33;100.00;102638.88;5044845;28;20028;-81
2022/11/26 06:12:46;;;;;;;26.65;9.02;;;;;;;4.33;100.00;102635.31;5041720;28;20143;-81
2022/11/26 06:15:11;;;;;;;20.52;8.35;;;;;;;4.33;100.00;102636.19;5036009;28;20125;-81
2022/11/26 06:17:36;;;;;;;24.00;8.38;;;;;;;4.36;100.00;102637.91;5044394;28;20448;-81
2022/11/26 06:20:02;;;;;;;24.88;8.07;;;;;;;4.36;100.00;102632.59;5039343;28;20408;-81
2022/11/26 06:22:27;;;;;;;25.73;9.35;;;;;;;4.37;100.00;102637.00;5023992;28;20530;-81
2022/11/26 06:24:52;;;;;;;26.67;7.90;;;;;;;4.34;100.00;102637.06;5038907;28;20731;-81
2022/11/26 06:27:21;;;;;;;27.25;7.93;;;;;;;4.31;100.00;102640.66;5047800;28;20113;-81
2022/11/26 06:29:46;;;;;;;31.70;8.60;;;;;;;4.32;100.00;102645.09;5033625;28;20094;-81
2022/11/26 06:32:11;;;;;;;26.33;9.43;;;;;;;4.30;100.00;102643.34;5041571;28;20033;-81
2022/11/26 06:34:36;;;;;;;26.15;9.57;;;;;;;4.30;100.00;102643.34;5039033;28;20063;-81
2022/11/26 06:37:02;;;;;;;25.20;8.50;;;;;;;4.31;100.00;102643.31;5023411;28;20051;-81
2022/11/26 06:39:28;;;;;;;25.50;8.35;;;;;;;4.30;100.00;102646.00;5038565;28;20033;-80
2022/11/26 06:41:53;;;;;;;25.65;8.25;;;;;;;4.31;100.00;102647.78;5021695;28;20433;-81
2022/11/26 06:44:18;;;;;;;24.33;7.63;;;;;;;4.27;100.00;102646.06;5036201;28;20484;-81
2022/11/26 06:46:43;;;;;;;27.58;9.10;;;;;;;4.26;100.00;102646.97;5044124;28;21030;-81
2022/11/26 06:49:09;;;;;;;28.88;8.98;;;;;;;4.25;100.00;102655.88;5036547;28;20434;-81
2022/11/26 06:51:35;;;;;;;24.25;8.10;;;;;;;4.25;100.00;102653.22;5023440;28;20040;-81
2022/11/26 06:54:01;;;;;;;23.65;8.30;;;;;;;4.26;100.00;102654.94;5039830;28;20296;-81
2022/11/26 06:56:26;;;;;;;27.15;9.20;;;;;;;4.21;100.00;102657.69;5049427;28;20458;-81
2022/11/26 06:58:54;;;;;;;24.85;7.90;;;;;;;4.18;100.00;102655.97;5014091;28;20026;-81
2022/11/26 07:01:25;;;;;;;25.88;8.25;;;;;;;4.18;100.00;102658.63;5041878;28;20025;-81
2022/11/26 07:03:51;;;;;;;24.15;8.10;;;;;;;4.19;100.00;102657.72;5050436;28;20557;-81
2022/11/26 07:06:25;;;;;;;30.40;8.98;;;;;;;4.20;100.00;102667.47;5044217;28;20053;-81
2022/11/26 07:08:52;;;;;;;26.58;8.20;;;;;;;4.20;100.00;102669.25;5041611;28;20044;-80
2022/11/26 07:11:21;;;;;;;21.25;8.27;;;;;;;4.22;100.00;102667.44;5023846;28;20048;-81
2022/11/26 07:13:47;;;;;;;22.67;8.98;;;;;;;4.24;100.00;102681.59;5023501;28;20025;-81
2022/11/26 07:16:13;;;;;;;27.70;9.02;;;;;;;4.26;100.00;102678.91;5042776;28;20371;-81
2022/11/26 07:18:39;;;;;;;23.65;8.15;;;;;;;4.29;100.00;102677.09;5047937;28;20018;-81
2022/11/26 07:21:06;;;;;;;27.30;8.43;;;;;;;4.30;100.00;102680.63;5028450;28;20032;-81
2022/11/26 07:23:31;;;;;;;24.17;9.00;;;;;;;4.31;100.00;102690.38;5035399;28;20017;-81
2022/11/26 07:25:58;;;;;;;27.85;8.15;;;;;;;4.29;100.00;102682.41;5053089;28;20017;-81
2022/11/26 07:28:24;;;;;;;23.23;8.93;;;;;;;4.29;100.00;102686.84;5045704;28;20029;-81
2022/11/26 07:30:49;;;;;;;24.27;9.07;;;;;;;4.28;100.00;102685.97;5044084;28;20040;-81
2022/11/26 07:33:14;;;;;;;28.95;9.48;;;;;;;4.31;100.00;102695.69;5043054;28;20025;-81
2022/11/26 07:35:39;;;;;;;23.65;8.88;;;;;;;4.34;100.00;102691.19;5030215;28;20135;-81
2022/11/26 07:38:05;;;;;;;29.13;9.57;;;;;;;4.36;100.00;102699.13;5033474;28;20052;-81
2022/11/26 07:40:30;;;;;;;30.13;10.52;;;;;;;4.36;100.00;102694.72;5027305;28;20031;-81
2022/11/26 07:42:58;;;;;;;25.70;9.95;;;;;;;4.41;100.00;102691.97;5040557;28;20025;-81
2022/11/26 07:45:24;;;;;;;21.63;8.32;;;;;;;4.43;100.00;102690.13;5022792;28;20025;-81
2022/11/26 07:47:49;;;;;;;32.28;10.65;;;;;;;4.47;100.00;102693.63;5028183;28;20071;-81
2022/11/26 07:50:15;;;;;;;24.15;8.38;;;;;;;4.49;100.00;102695.34;5027936;28;20437;-81
2022/11/26 07:52:40;;;;;;;24.77;9.60;;;;;;;4.51;100.00;102693.56;5046679;28;20065;-81
2022/11/26 07:55:06;;;;;;;24.67;9.40;;;;;;;4.55;100.00;102695.25;5025733;28;20100;-81
2022/11/26 07:57:31;;;;;;;24.83;8.65;;;;;;;4.58;100.00;102693.44;5041797;28;20229;-81
2022/11/26 07:59:56;;;;;;;25.40;9.15;;;;;;;4.63;100.00;102689.78;5029065;28;20162;-81
2022/11/26 08:02:21;;;;;;;27.13;9.82;;;;;;;4.65;100.00;102703.06;5026961;28;20025;-81
2022/11/26 08:04:47;;;;;;;23.70;10.50;;;;;;;4.66;100.00;102692.38;5025068;28;20049;-81
2022/11/26 08:07:12;;;;;;;29.98;9.98;;;;;;;4.68;100.00;102698.53;5042771;28;20034;-81
2022/11/26 08:09:37;;;;;;;25.52;9.75;;;;;;;4.72;100.00;102700.25;5043277;28;20370;-81
2022/11/26 08:12:03;;;;;;;28.00;10.25;;;;;;;4.77;100.00;102696.63;5021198;28;20451;-81
2022/11/26 08:14:28;;;;;;;25.85;8.98;;;;;;;4.81;100.00;102696.53;5008158;28;20433;-81
2022/11/26 08:16:54;;;;;;;25.77;10.85;;;;;;;4.84;100.00;102699.13;5028933;28;20064;-81
2022/11/26 08:19:19;;;;;;;25.33;9.73;;;;;;;4.89;100.00;102702.59;5023378;28;21174;-81
2022/11/26 08:21:44;;;;;;;24.50;9.82;;;;;;;4.93;100.00;102705.19;5046230;28;20033;-81
2022/11/26 08:24:14;;;;;;;28.45;10.90;;;;;;;4.98;100.00;102695.31;5021160;28;20354;-81
2022/11/26 08:26:39;;;;;;;25.13;11.05;;;;;;;5.01;100.00;102697.94;5051135;28;20096;-81
2022/11/26 08:29:05;;;;;;;27.80;10.32;;;;;;;5.04;100.00;102698.75;5024958;28;20411;-81
2022/11/26 08:31:30;;;;;;;30.95;11.70;;;;;;;5.09;100.00;102698.66;5051399;28;20096;-81
2022/11/26 08:33:59;;;;;;;31.25;11.73;;;;;;;5.12;100.00;102700.38;5051089;28;20017;-81
2022/11/26 08:36:28;;;;;;;26.73;10.83;;;;;;;5.17;100.00;102707.38;5047262;28;20105;-81
2022/11/26 08:38:54;;;;;;;28.42;11.68;;;;;;;5.20;100.00;102711.78;5032576;28;20029;-81
2022/11/26 08:41:19;;;;;;;30.55;10.77;;;;;;;5.24;100.00;102716.09;5051678;28;20063;-81
2022/11/26 08:43:45;;;;;;;32.85;12.23;;;;;;;5.28;100.00;102715.13;5029907;28;20032;-81
2022/11/26 08:46:10;;;;;;;28.08;10.18;;;;;;;5.30;100.00;102712.44;5033159;28;20025;-81
2022/11/26 08:48:36;;;;;;;28.38;11.40;;;;;;;5.34;100.00;102714.13;5051135;28;20025;-82
2022/11/26 08:51:04;;;;;;;31.20;11.43;;;;;;;5.39;100.00;102717.59;5046382;28;20155;-81
2022/11/26 08:53:31;;;;;;;33.50;11.65;;;;;;;5.42;100.00;102710.38;5046394;28;20029;-81
2022/11/26 08:56:07;;;;;;;36.13;13.40;;;;;;;5.45;100.00;102703.22;5050460;28;20036;-81
2022/11/26 08:58:35;;;;;;;32.20;12.02;;;;;;;5.49;100.00;102702.25;5050310;28;20029;-81
2022/11/26 09:01:11;;;;;;;32.83;12.27;;;;;;;5.54;100.00;102708.38;5029151;28;20069;-81
2022/11/26 09:03:36;;;;;;;31.60;13.52;;;;;;;5.57;100.00;102714.50;5052046;28;20028;-82
2022/11/26 09:06:03;;;;;;;30.92;10.80;;;;;;;5.62;100.00;102717.06;5032962;28;20051;-82
2022/11/26 09:08:30;;;;;;;31.95;11.57;;;;;;;5.66;100.00;102718.75;5050883;28;20067;-82
2022/11/26 09:10:56;;;;;;;27.23;11.90;;;;;;;5.70;100.00;102723.13;5051189;28;20078;-81
2022/11/26 09:13:22;;;;;;;27.65;11.32;;;;;;;5.74;100.00;102729.25;5049459;28;20036;-81
2022/11/26 09:15:48;;;;;;;35.72;12.85;;;;;;;5.77;100.00;102727.41;5050034;28;20104;-82
2022/11/26 09:18:14;;;;;;;24.25;9.75;;;;;;;5.80;100.00;102730.91;5047518;28;20108;-82
2022/11/26 09:20:39;;;;;;;31.70;11.88;;;;;;;5.84;100.00;102732.59;5047638;28;20108;-81
2022/11/26 09:23:04;;;;;;;25.60;10.82;;;;;;;5.88;100.00;102735.16;5045950;28;20724;-82
2022/11/26 09:25:29;;;;;;;29.65;10.57;;;;;;;5.91;100.00;102735.06;5048708;28;20033;-82
2022/11/26 09:27:55;;;;;;;26.25;10.13;;;;;;;5.97;100.00;102741.19;5051313;28;20397;-82
2022/11/26 09:30:20;;;;;;;30.92;12.05;;;;;;;6.01;100.00;102740.25;5030952;28;20441;-82
2022/11/26 09:32:45;;;;;;;27.92;10.52;;;;;;;6.05;100.00;102749.94;5022936;28;20129;-82
2022/11/26 09:35:11;;;;;;;26.85;10.02;;;;;;;6.08;100.00;102757.88;5051634;28;20040;-82
2022/11/26 09:37:36;;;;;;;22.85;9.73;;;;;;;6.10;100.00;102754.22;5051088;28;20078;-82
2022/11/26 09:40:02;;;;;;;25.60;10.45;;;;;;;6.12;100.00;102756.91;5050922;28;20033;-82
2022/11/26 09:42:56;;;;;;;27.40;11.75;;;;;;;6.18;100.00;102758.50;5050136;28;20033;-82
2022/11/26 09:45:41;;;;;;;29.30;10.77;;;;;;;6.25;100.00;102750.34;5047239;28;20110;-82
2022/11/26 09:48:14;;;;;;;28.67;11.40;;;;;;;6.29;100.00;102745.78;5050071;28;20430;-82
2022/11/26 09:50:41;;;;;;;29.52;11.73;;;;;;;6.34;100.00;102754.56;5043744;28;20028;-82
2022/11/26 09:53:24;;;;;;;29.98;11.23;;;;;;;6.37;100.00;102749.16;5047124;28;20125;-82
2022/11/26 09:55:52;;;;;;;32.55;10.70;;;;;;;6.41;100.00;102740.16;5045782;28;20481;-82
2022/11/26 09:58:23;;;;;;;27.85;10.07;;;;;;;6.45;100.00;102740.94;5033138;28;20444;-82
2022/11/26 10:00:51;;;;;;;26.60;9.23;;;;;;;6.50;100.00;102743.47;5046330;28;20040;-82
2022/11/26 10:03:18;;;;;;;29.92;10.38;;;;;;;6.53;100.00;102743.41;5027925;28;20021;-82
2022/11/26 10:05:46;;;;;;;31.17;11.00;;;;;;;6.55;100.00;102747.78;5048293;28;20025;-82
2022/11/26 10:08:34;;;;;;;24.35;9.57;;;;;;;6.58;100.00;102747.72;5031648;28;20491;-82
2022/11/26 10:11:14;;;;;;;27.23;11.20;;;;;;;6.61;100.00;102742.28;5028201;28;20515;-82
2022/11/26 10:14:20;;;;;;;35.88;11.02;;;;;;;6.68;100.00;102752.81;5043547;28;20201;-82
2022/11/26 10:17:16;;;;;;;28.15;9.60;;;;;;;6.69;100.00;102754.56;4945817;28;20035;-82
2022/11/26 10:20:08;;;;;;;30.20;10.68;;;;;;;6.72;100.00;102757.16;4964740;28;20077;-82
2022/11/26 10:22:33;;;;;;;27.95;9.35;;;;;;;6.72;100.00;102744.69;4954813;28;20650;-82
2022/11/26 10:25:01;;;;;;;25.70;10.43;;;;;;;6.75;100.00;102755.28;4933495;29;20034;-82
2022/11/26 10:27:31;;;;;;;27.38;9.75;;;;;;;6.81;100.00;102751.59;4951200;28;20484;-82
2022/11/26 10:30:20;;;;;;;30.58;9.73;;;;;;;6.88;100.00;102745.16;4950146;28;20057;-82
2022/11/26 10:32:47;;;;;;;30.70;9.43;;;;;;;6.92;100.00;102741.47;4950807;28;20462;-82
2022/11/26 10:35:26;;;;;;;30.40;10.30;;;;;;;6.96;100.00;102736.91;4951037;28;20047;-82
2022/11/26 10:37:53;;;;;;;23.88;8.68;;;;;;;6.98;100.00;102727.94;4951458;28;20118;-82
2022/11/26 10:40:30;;;;;;;28.48;10.23;;;;;;;7.02;100.00;102725.19;4953585;29;20411;-83
2022/11/26 10:43:07;;;;;;;25.17;9.68;;;;;;;7.05;100.00;102722.41;4953764;28;20039;-83
2022/11/26 10:45:43;;;;;;;27.65;9.52;;;;;;;7.07;100.00;102731.25;4964281;28;20049;-83
2022/11/26 10:48:29;;;;;;;28.30;9.02;;;;;;;7.10;100.00;102724.06;5035072;28;20098;-83
2022/11/26 10:51:14;;;;;;;28.83;10.00;;;;;;;7.14;100.00;102720.34;5036370;28;20185;-83
2022/11/26 10:53:56;;;;;;;24.85;10.27;;;;;;;7.19;100.00;102717.56;5026755;28;20033;-82
2022/11/26 10:56:27;;;;;;;26.52;10.27;;;;;;;7.22;100.00;102722.81;5050283;28;20546;-83
2022/11/26 10:58:56;;;;;;;26.88;9.35;;;;;;;7.26;100.00;102721.81;5032696;28;20587;-83
2022/11/26 11:01:21;;;;;;;39.50;10.02;;;;;;;7.30;100.00;102719.91;5054383;28;20066;-83
2022/11/26 11:03:51;;;;;;;26.75;8.77;;;;;;;7.35;100.00;102721.53;5053535;28;20048;-83
2022/11/26 11:06:19;;;;;;;27.77;9.13;;;;;;;7.42;100.00;102718.66;5030895;28;20037;-83
2022/11/26 11:08:52;;;;;;;27.38;9.18;;;;;;;7.48;100.00;102714.03;5049401;28;20048;-83
2022/11/26 11:11:21;;;;;;;36.22;10.40;;;;;;;7.52;100.00;102709.44;5029502;28;20063;-83
2022/11/26 11:13:47;;;;;;;25.40;8.40;;;;;;;7.55;100.00;102709.34;5053142;28;20024;-83
2022/11/26 11:16:19;;;;;;;29.52;9.25;;;;;;;7.61;100.00;102716.31;5034940;28;20021;-83
2022/11/26 11:18:56;;;;;;;22.45;8.90;;;;;;;7.67;100.00;102722.34;5036084;28;20036;-83